createdAt,value
2023-04-08T00:00:06.369Z,8.03
2023-04-08T00:01:06.404Z,8.08
2023-04-08T00:02:06.483Z,8.13
2023-04-08T00:03:06.447Z,8.19
2023-04-08T00:04:06.564Z,8.24
2023-04-08T00:05:06.384Z,8.28
2023-04-08T00:06:06.423Z,8.30
2023-04-08T00:07:06.394Z,8.36
2023-04-08T00:08:06.395Z,8.37
2023-04-08T00:09:06.394Z,8.41
2023-04-08T00:10:06.394Z,8.45
2023-04-08T00:11:06.413Z,8.47
2023-04-08T00:12:06.419Z,8.49
2023-04-08T00:13:06.469Z,8.51
2023-04-08T00:14:06.420Z,8.51
2023-04-08T00:15:06.398Z,8.53
2023-04-08T00:16:06.394Z,8.55
2023-04-08T00:17:06.587Z,8.55
2023-04-08T00:18:06.427Z,8.56
2023-04-08T00:19:06.386Z,8.58
2023-04-08T00:20:06.376Z,8.62
2023-04-08T00:21:06.370Z,8.59
2023-04-08T00:22:06.412Z,8.54
2023-04-08T00:23:06.399Z,8.43
2023-04-08T00:24:06.413Z,8.39
2023-04-08T00:25:06.434Z,8.42
2023-04-08T00:26:06.426Z,8.34
2023-04-08T00:27:06.464Z,8.31
2023-04-08T00:28:06.473Z,8.37
2023-04-08T00:29:06.434Z,8.42
2023-04-08T00:30:06.475Z,8.37
2023-04-08T00:31:06.549Z,8.34
2023-04-08T00:32:06.629Z,8.39
2023-04-08T00:33:06.675Z,8.39
2023-04-08T00:34:06.720Z,8.45
2023-04-08T00:35:06.802Z,8.49
2023-04-08T00:36:06.861Z,8.53
2023-04-08T00:37:06.936Z,8.55
2023-04-08T00:38:06.982Z,8.48
2023-04-08T00:39:07.020Z,8.51
2023-04-08T00:40:07.076Z,8.57
2023-04-08T00:41:07.108Z,8.60
2023-04-08T00:42:07.141Z,8.65
2023-04-08T00:43:07.167Z,8.68
2023-04-08T00:44:07.198Z,8.70
2023-04-08T00:45:07.218Z,8.73
2023-04-08T00:46:07.304Z,8.69
2023-04-08T00:47:07.274Z,8.58
2023-04-08T00:48:07.297Z,8.57
2023-04-08T00:49:07.337Z,8.59
2023-04-08T00:50:07.377Z,8.64
2023-04-08T00:51:07.410Z,8.68
2023-04-08T00:52:07.469Z,8.72
2023-04-08T00:53:07.472Z,8.71
2023-04-08T00:54:07.532Z,8.63
2023-04-08T00:55:07.587Z,8.58
2023-04-08T00:56:07.631Z,8.63
2023-04-08T00:57:07.684Z,8.67
2023-04-08T00:58:07.734Z,8.56
2023-04-08T00:59:07.782Z,7.91
2023-04-08T01:00:07.854Z,7.70
2023-04-08T01:01:07.949Z,7.77
2023-04-08T01:02:08.106Z,7.87
2023-04-08T01:03:08.417Z,7.98
2023-04-08T01:04:08.209Z,8.04
2023-04-08T01:05:08.154Z,8.11
2023-04-08T01:06:08.226Z,8.13
2023-04-08T01:07:08.309Z,8.12
2023-04-08T01:08:08.367Z,8.13
2023-04-08T01:09:08.413Z,8.16
2023-04-08T01:10:08.467Z,8.20
2023-04-08T01:11:08.518Z,8.24
2023-04-08T01:12:08.603Z,8.25
2023-04-08T01:13:08.665Z,8.27
2023-04-08T01:14:08.664Z,8.31
2023-04-08T01:15:08.727Z,8.35
2023-04-08T01:16:08.824Z,8.39
2023-04-08T01:17:08.820Z,8.41
2023-04-08T01:18:08.931Z,8.40
2023-04-08T01:19:08.954Z,8.35
2023-04-08T01:20:09.019Z,8.34
2023-04-08T01:21:09.060Z,8.34
2023-04-08T01:22:09.122Z,8.35
2023-04-08T01:23:09.215Z,8.37
2023-04-08T01:24:09.259Z,8.37
2023-04-08T01:25:09.320Z,8.38
2023-04-08T01:26:09.370Z,8.25
2023-04-08T01:27:09.424Z,8.21
2023-04-08T01:28:09.470Z,8.22
2023-04-08T01:29:09.507Z,8.22
2023-04-08T01:30:09.558Z,8.25
2023-04-08T01:31:09.607Z,8.31
2023-04-08T01:32:09.682Z,8.35
2023-04-08T01:33:09.701Z,8.38
2023-04-08T01:34:09.785Z,8.36
2023-04-08T01:35:09.810Z,8.33
2023-04-08T01:36:09.838Z,8.22
2023-04-08T01:37:09.855Z,8.21
2023-04-08T01:38:09.867Z,8.21
2023-04-08T01:39:09.919Z,8.25
2023-04-08T01:40:09.924Z,8.26
2023-04-08T01:41:09.951Z,8.31
2023-04-08T01:42:10.026Z,8.32
2023-04-08T01:43:10.017Z,8.18
2023-04-08T01:44:10.052Z,8.19
2023-04-08T01:45:10.108Z,8.17
2023-04-08T01:46:10.210Z,8.20
2023-04-08T01:47:10.277Z,8.24
2023-04-08T01:48:10.305Z,8.29
2023-04-08T01:49:10.364Z,8.30
2023-04-08T01:50:10.443Z,8.19
2023-04-08T01:51:10.468Z,8.05
2023-04-08T01:52:10.574Z,8.09
2023-04-08T01:53:10.564Z,8.07
2023-04-08T01:54:10.615Z,8.07
2023-04-08T01:55:10.680Z,8.08
2023-04-08T01:56:10.706Z,8.11
2023-04-08T01:57:10.754Z,8.15
2023-04-08T01:58:10.812Z,8.21
2023-04-08T01:59:10.880Z,8.26
2023-04-08T02:00:10.932Z,8.29
2023-04-08T02:01:10.992Z,8.30
2023-04-08T02:02:11.146Z,8.30
2023-04-08T02:03:11.269Z,8.31
2023-04-08T02:04:11.347Z,8.22
2023-04-08T02:05:11.179Z,8.19
2023-04-08T02:06:11.218Z,8.19
2023-04-08T02:07:11.198Z,8.17
2023-04-08T02:08:11.190Z,8.19
2023-04-08T02:09:11.192Z,8.22
2023-04-08T02:10:11.213Z,8.27
2023-04-08T02:11:11.247Z,8.29
2023-04-08T02:12:11.298Z,8.33
2023-04-08T02:13:11.333Z,8.38
2023-04-08T02:14:11.412Z,8.39
2023-04-08T02:15:11.416Z,8.27
2023-04-08T02:16:11.479Z,8.22
2023-04-08T02:17:11.460Z,8.24
2023-04-08T02:18:11.554Z,8.24
2023-04-08T02:19:11.529Z,8.25
2023-04-08T02:20:11.588Z,8.28
2023-04-08T02:21:11.671Z,8.30
2023-04-08T02:22:11.733Z,8.29
2023-04-08T02:23:11.772Z,8.21
2023-04-08T02:24:11.809Z,8.20
2023-04-08T02:25:11.888Z,8.21
2023-04-08T02:26:11.931Z,8.20
2023-04-08T02:27:11.980Z,8.24
2023-04-08T02:28:12.041Z,8.27
2023-04-08T02:29:12.082Z,8.29
2023-04-08T02:30:12.149Z,8.34
2023-04-08T02:31:13.399Z,8.36
2023-04-08T02:32:12.293Z,8.38
2023-04-08T02:33:12.425Z,8.27
2023-04-08T02:34:12.366Z,8.24
2023-04-08T02:35:12.374Z,8.19
2023-04-08T02:36:12.396Z,8.17
2023-04-08T02:37:12.417Z,8.14
2023-04-08T02:38:12.559Z,8.15
2023-04-08T02:39:12.476Z,8.09
2023-04-08T02:40:12.524Z,8.09
2023-04-08T02:41:12.566Z,8.07
2023-04-08T02:42:12.613Z,8.07
2023-04-08T02:43:12.682Z,8.08
2023-04-08T02:44:12.682Z,8.10
2023-04-08T02:45:12.733Z,8.12
2023-04-08T02:46:12.780Z,8.13
2023-04-08T02:47:12.736Z,8.14
2023-04-08T02:48:12.800Z,8.12
2023-04-08T02:49:12.850Z,8.07
2023-04-08T02:50:12.905Z,8.05
2023-04-08T02:51:12.972Z,8.02
2023-04-08T02:52:13.024Z,7.99
2023-04-08T02:53:13.072Z,7.92
2023-04-08T02:54:13.236Z,7.94
2023-04-08T02:55:13.161Z,8.00
2023-04-08T02:56:13.177Z,8.01
2023-04-08T02:57:13.233Z,7.96
2023-04-08T02:58:13.309Z,7.90
2023-04-08T02:59:13.394Z,7.88
2023-04-08T03:00:13.479Z,7.85
2023-04-08T03:01:13.581Z,7.85
2023-04-08T03:02:13.706Z,7.88
2023-04-08T03:03:13.801Z,7.90
2023-04-08T03:04:13.755Z,7.94
2023-04-08T03:05:13.798Z,7.94
2023-04-08T03:06:13.816Z,7.94
2023-04-08T03:07:13.851Z,7.89
2023-04-08T03:08:13.886Z,7.92
2023-04-08T03:09:13.898Z,7.96
2023-04-08T03:10:13.945Z,7.87
2023-04-08T03:11:13.928Z,7.68
2023-04-08T03:12:13.995Z,7.68
2023-04-08T03:13:14.067Z,7.72
2023-04-08T03:14:14.088Z,7.75
2023-04-08T03:15:14.145Z,7.78
2023-04-08T03:16:14.229Z,7.78
2023-04-08T03:17:14.183Z,7.84
2023-04-08T03:18:14.233Z,7.87
2023-04-08T03:19:14.228Z,7.86
2023-04-08T03:20:14.231Z,7.74
2023-04-08T03:21:14.230Z,7.66
2023-04-08T03:22:14.244Z,7.63
2023-04-08T03:23:14.264Z,7.61
2023-04-08T03:24:14.309Z,7.60
2023-04-08T03:25:14.353Z,7.56
2023-04-08T03:26:14.428Z,7.56
2023-04-08T03:27:14.459Z,7.47
2023-04-08T03:28:14.475Z,7.39
2023-04-08T03:29:21.174Z,7.31
2023-04-08T03:30:14.578Z,7.20
2023-04-08T03:31:14.618Z,7.15
2023-04-08T03:32:14.660Z,7.14
2023-04-08T03:33:14.701Z,7.14
2023-04-08T03:34:14.729Z,7.17
2023-04-08T03:35:14.762Z,7.21
2023-04-08T03:36:14.783Z,7.20
2023-04-08T03:37:14.803Z,7.18
2023-04-08T03:38:14.822Z,7.09
2023-04-08T03:39:14.844Z,6.94
2023-04-08T03:40:14.863Z,6.92
2023-04-08T03:41:14.889Z,6.97
2023-04-08T03:42:14.940Z,7.02
2023-04-08T03:43:14.901Z,7.05
2023-04-08T03:44:14.932Z,7.04
2023-04-08T03:45:14.969Z,7.03
2023-04-08T03:46:15.012Z,6.96
2023-04-08T03:47:15.018Z,6.90
2023-04-08T03:48:15.041Z,6.88
2023-04-08T03:49:15.067Z,6.88
2023-04-08T03:50:15.093Z,6.82
2023-04-08T03:51:15.192Z,6.82
2023-04-08T03:52:15.286Z,6.82
2023-04-08T03:53:15.373Z,6.81
2023-04-08T03:54:15.458Z,6.77
2023-04-08T03:55:15.525Z,6.77
2023-04-08T03:56:15.597Z,6.78
2023-04-08T03:57:15.661Z,6.73
2023-04-08T03:58:15.768Z,6.74
2023-04-08T03:59:15.832Z,6.74
2023-04-08T04:00:15.954Z,6.76
2023-04-08T04:01:15.962Z,6.71
2023-04-08T04:02:16.177Z,6.68
2023-04-08T04:03:16.293Z,6.65
2023-04-08T04:04:16.504Z,6.63
2023-04-08T04:05:16.395Z,6.66
2023-04-08T04:06:16.536Z,6.69
2023-04-08T04:07:16.551Z,6.73
2023-04-08T04:08:16.614Z,6.75
2023-04-08T04:09:16.669Z,6.64
2023-04-08T04:10:16.703Z,6.62
2023-04-08T04:11:16.776Z,6.55
2023-04-08T04:12:16.868Z,6.49
2023-04-08T04:13:16.961Z,6.52
2023-04-08T04:14:17.035Z,6.56
2023-04-08T04:15:17.056Z,6.59
2023-04-08T04:16:17.160Z,6.62
2023-04-08T04:17:17.147Z,6.65
2023-04-08T04:18:17.228Z,6.65
2023-04-08T04:19:17.254Z,6.69
2023-04-08T04:20:17.288Z,6.71
2023-04-08T04:21:17.353Z,6.78
2023-04-08T04:22:17.441Z,6.79
2023-04-08T04:23:17.530Z,6.69
2023-04-08T04:24:17.565Z,6.73
2023-04-08T04:25:17.655Z,6.79
2023-04-08T04:26:17.674Z,6.85
2023-04-08T04:27:17.795Z,6.89
2023-04-08T04:28:17.793Z,6.93
2023-04-08T04:29:17.837Z,6.95
2023-04-08T04:30:17.920Z,6.99
2023-04-08T04:31:17.972Z,6.98
2023-04-08T04:32:18.009Z,6.95
2023-04-08T04:33:18.081Z,6.88
2023-04-08T04:34:18.155Z,6.84
2023-04-08T04:35:18.322Z,6.89
2023-04-08T04:36:18.302Z,6.94
2023-04-08T04:37:18.352Z,6.98
2023-04-08T04:38:18.420Z,6.97
2023-04-08T04:39:18.444Z,7.01
2023-04-08T04:40:18.480Z,7.05
2023-04-08T04:41:18.538Z,7.09
2023-04-08T04:42:18.543Z,7.04
2023-04-08T04:43:18.572Z,7.06
2023-04-08T04:44:18.599Z,7.10
2023-04-08T04:45:18.625Z,7.13
2023-04-08T04:46:18.764Z,7.18
2023-04-08T04:47:18.730Z,7.22
2023-04-08T04:48:18.785Z,7.22
2023-04-08T04:49:18.834Z,7.24
2023-04-08T04:50:18.884Z,7.17
2023-04-08T04:51:18.921Z,7.09
2023-04-08T04:52:18.960Z,7.11
2023-04-08T04:53:19.005Z,7.13
2023-04-08T04:54:19.047Z,7.18
2023-04-08T04:55:19.089Z,7.20
2023-04-08T04:56:19.128Z,7.21
2023-04-08T04:57:19.161Z,7.22
2023-04-08T04:58:19.192Z,7.25
2023-04-08T04:59:19.215Z,7.27
2023-04-08T05:00:19.248Z,7.28
2023-04-08T05:01:19.297Z,7.25
2023-04-08T05:02:19.447Z,7.19
2023-04-08T05:03:19.439Z,7.19
2023-04-08T05:04:19.381Z,7.23
2023-04-08T05:05:19.506Z,7.24
2023-04-08T05:06:19.480Z,7.27
2023-04-08T05:07:19.540Z,7.30
2023-04-08T05:08:19.573Z,7.34
2023-04-08T05:09:19.606Z,7.34
2023-04-08T05:10:19.667Z,7.36
2023-04-08T05:11:19.704Z,7.38
2023-04-08T05:12:19.768Z,7.40
2023-04-08T05:13:19.804Z,7.41
2023-04-08T05:14:19.831Z,7.29
2023-04-08T05:15:19.851Z,7.21
2023-04-08T05:16:19.919Z,7.28
2023-04-08T05:17:19.936Z,7.33
2023-04-08T05:18:19.958Z,7.38
2023-04-08T05:19:19.952Z,7.41
2023-04-08T05:20:19.982Z,7.46
2023-04-08T05:21:20.007Z,7.51
2023-04-08T05:22:20.046Z,7.54
2023-04-08T05:23:20.063Z,7.55
2023-04-08T05:24:20.093Z,7.55
2023-04-08T05:25:20.137Z,7.57
2023-04-08T05:26:20.445Z,7.48
2023-04-08T05:27:20.232Z,7.46
2023-04-08T05:28:20.277Z,7.19
2023-04-08T05:29:20.344Z,7.20
2023-04-08T05:30:20.404Z,7.13
2023-04-08T05:31:20.536Z,7.16
2023-04-08T05:32:20.600Z,7.19
2023-04-08T05:33:20.691Z,7.23
2023-04-08T05:34:20.799Z,7.26
2023-04-08T05:35:20.867Z,7.29
2023-04-08T05:36:20.908Z,7.35
2023-04-08T05:37:20.941Z,7.39
2023-04-08T05:38:20.989Z,7.46
2023-04-08T05:39:21.034Z,7.50
2023-04-08T05:40:21.058Z,7.52
2023-04-08T05:41:21.087Z,7.54
2023-04-08T05:42:21.123Z,7.58
2023-04-08T05:43:21.154Z,7.53
2023-04-08T05:44:21.198Z,7.53
2023-04-08T05:45:21.248Z,7.53
2023-04-08T05:46:21.333Z,7.57
2023-04-08T05:47:21.381Z,7.63
2023-04-08T05:48:21.386Z,7.67
2023-04-08T05:49:21.417Z,7.70
2023-04-08T05:50:21.439Z,7.70
2023-04-08T05:51:21.451Z,7.75
2023-04-08T05:52:21.427Z,7.80
2023-04-08T05:53:21.459Z,7.86
2023-04-08T05:54:21.464Z,7.91
2023-04-08T05:55:21.493Z,7.97
2023-04-08T05:56:21.570Z,8.03
2023-04-08T05:57:21.562Z,8.02
2023-04-08T05:58:21.639Z,8.02
2023-04-08T05:59:21.697Z,8.04
2023-04-08T06:00:21.792Z,8.07
2023-04-08T06:01:21.844Z,8.09
2023-04-08T06:02:22.073Z,7.97
2023-04-08T06:03:22.280Z,7.95
2023-04-08T06:04:22.018Z,7.96
2023-04-08T06:05:21.977Z,7.84
2023-04-08T06:06:22.043Z,7.82
2023-04-08T06:07:22.063Z,7.76
2023-04-08T06:08:22.115Z,7.80
2023-04-08T06:09:22.157Z,7.78
2023-04-08T06:10:22.246Z,7.70
2023-04-08T06:11:22.339Z,7.68
2023-04-08T06:12:22.412Z,7.62
2023-04-08T06:13:22.501Z,7.63
2023-04-08T06:14:22.564Z,7.66
2023-04-08T06:15:22.618Z,7.71
2023-04-08T06:16:22.791Z,7.68
2023-04-08T06:17:22.774Z,7.70
2023-04-08T06:18:22.790Z,7.77
2023-04-08T06:19:22.812Z,7.87
2023-04-08T06:20:22.819Z,7.94
2023-04-08T06:21:22.828Z,7.99
2023-04-08T06:22:22.871Z,8.04
2023-04-08T06:23:22.855Z,8.07
2023-04-08T06:24:23.054Z,8.10
2023-04-08T06:25:22.885Z,8.14
2023-04-08T06:26:22.907Z,8.16
2023-04-08T06:27:23.596Z,8.19
2023-04-08T06:28:22.943Z,8.19
2023-04-08T06:29:23.015Z,8.26
2023-04-08T06:30:23.045Z,8.32
2023-04-08T06:31:23.149Z,8.36
2023-04-08T06:32:23.195Z,8.34
2023-04-08T06:33:23.233Z,8.34
2023-04-08T06:34:23.300Z,8.34
2023-04-08T06:35:23.368Z,8.42
2023-04-08T06:36:23.413Z,8.49
2023-04-08T06:37:23.460Z,8.58
2023-04-08T06:38:23.793Z,8.65
2023-04-08T06:39:23.554Z,8.74
2023-04-08T06:40:23.591Z,8.83
2023-04-08T06:41:23.594Z,8.84
2023-04-08T06:42:23.614Z,8.90
2023-04-08T06:43:23.614Z,8.97
2023-04-08T06:44:23.618Z,9.05
2023-04-08T06:45:24.455Z,9.11
2023-04-08T06:46:23.669Z,9.18
2023-04-08T06:47:23.665Z,9.25
2023-04-08T06:48:23.609Z,9.33
2023-04-08T06:49:23.623Z,9.41
2023-04-08T06:50:23.631Z,9.44
2023-04-08T06:51:23.659Z,9.52
2023-04-08T06:52:23.654Z,9.58
2023-04-08T06:53:23.663Z,9.63
2023-04-08T06:54:23.690Z,9.72
2023-04-08T06:55:23.681Z,9.80
2023-04-08T06:56:23.735Z,9.83
2023-04-08T06:57:23.712Z,9.78
2023-04-08T06:58:23.717Z,9.65
2023-04-08T06:59:23.778Z,9.56
2023-04-08T07:00:23.820Z,9.48
2023-04-08T07:01:24.028Z,9.51
2023-04-08T07:02:23.983Z,9.53
2023-04-08T07:03:24.184Z,9.47
2023-04-08T07:04:24.066Z,9.48
2023-04-08T07:05:24.074Z,9.52
2023-04-08T07:06:24.051Z,9.52
2023-04-08T07:07:24.150Z,9.56
2023-04-08T07:08:24.172Z,9.55
2023-04-08T07:09:24.228Z,9.56
2023-04-08T07:10:24.389Z,9.56
2023-04-08T07:11:24.366Z,9.56
2023-04-08T07:12:24.411Z,9.54
2023-04-08T07:13:24.450Z,9.61
2023-04-08T07:14:24.471Z,9.67
2023-04-08T07:15:24.509Z,9.75
2023-04-08T07:16:24.567Z,9.84
2023-04-08T07:17:24.556Z,9.92
2023-04-08T07:18:24.566Z,9.86
2023-04-08T07:19:24.613Z,9.84
2023-04-08T07:20:24.643Z,9.89
2023-04-08T07:21:24.610Z,9.96
2023-04-08T07:22:24.630Z,10.02
2023-04-08T07:23:24.655Z,10.13
2023-04-08T07:24:24.690Z,10.22
2023-04-08T07:25:24.746Z,10.27
2023-04-08T07:26:24.829Z,10.34
2023-04-08T07:27:24.802Z,10.41
2023-04-08T07:28:24.856Z,10.52
2023-04-08T07:29:24.841Z,10.62
2023-04-08T07:30:24.902Z,10.72
2023-04-08T07:31:24.995Z,10.77
2023-04-08T07:32:24.892Z,10.74
2023-04-08T07:33:24.809Z,10.85
2023-04-08T07:34:24.785Z,10.92
2023-04-08T07:35:24.835Z,11.00
2023-04-08T07:36:24.772Z,11.11
2023-04-08T07:37:24.739Z,11.20
2023-04-08T07:38:24.762Z,11.29
2023-04-08T07:39:24.786Z,11.35
2023-04-08T07:40:24.907Z,11.39
2023-04-08T07:41:24.822Z,11.45
2023-04-08T07:42:24.854Z,11.52
2023-04-08T07:43:24.892Z,11.58
2023-04-08T07:44:24.831Z,11.67
2023-04-08T07:45:24.877Z,11.71
2023-04-08T07:46:24.937Z,11.63
2023-04-08T07:47:24.860Z,11.61
2023-04-08T07:48:24.811Z,11.52
2023-04-08T07:49:24.841Z,11.39
2023-04-08T07:50:24.863Z,11.41
2023-04-08T07:51:24.860Z,11.36
2023-04-08T07:52:24.870Z,11.39
2023-04-08T07:53:24.853Z,11.45
2023-04-08T07:54:24.880Z,11.40
2023-04-08T07:55:24.947Z,11.52
2023-04-08T07:56:24.916Z,11.65
2023-04-08T07:57:24.920Z,11.76
2023-04-08T07:58:25.013Z,11.91
2023-04-08T07:59:24.890Z,11.99
2023-04-08T08:00:24.873Z,12.09
2023-04-08T08:01:25.475Z,12.19
2023-04-08T08:02:24.915Z,12.23
2023-04-08T08:03:25.072Z,12.33
2023-04-08T08:04:25.000Z,12.41
2023-04-08T08:05:24.807Z,12.42
2023-04-08T08:06:24.674Z,12.39
2023-04-08T08:07:24.659Z,12.46
2023-04-08T08:08:24.652Z,12.61
2023-04-08T08:09:24.634Z,12.69
2023-04-08T08:10:24.624Z,12.77
2023-04-08T08:11:24.614Z,12.84
2023-04-08T08:12:24.614Z,12.90
2023-04-08T08:13:24.615Z,12.99
2023-04-08T08:14:24.626Z,13.08
2023-04-08T08:15:24.577Z,13.14
2023-04-08T08:16:24.598Z,13.03
2023-04-08T08:17:26.357Z,13.02
2023-04-08T08:18:24.479Z,13.06
2023-04-08T08:19:24.428Z,13.11
2023-04-08T08:20:24.344Z,13.12
2023-04-08T08:21:24.282Z,13.15
2023-04-08T08:22:24.201Z,13.22
2023-04-08T08:23:24.139Z,13.30
2023-04-08T08:24:24.078Z,13.30
2023-04-08T08:25:25.971Z,13.32
2023-04-08T08:26:23.938Z,13.44
2023-04-08T08:27:23.881Z,13.53
2023-04-08T08:28:23.803Z,13.62
2023-04-08T08:29:23.744Z,13.58
2023-04-08T08:30:23.699Z,13.65
2023-04-08T08:31:23.660Z,13.72
2023-04-08T08:32:23.532Z,13.69
2023-04-08T08:33:23.448Z,13.72
2023-04-08T08:34:23.376Z,13.78
2023-04-08T08:35:23.302Z,13.74
2023-04-08T08:36:23.240Z,13.54
2023-04-08T08:37:23.166Z,13.60
2023-04-08T08:38:23.120Z,13.66
2023-04-08T08:39:23.030Z,13.72
2023-04-08T08:40:22.959Z,13.72
2023-04-08T08:41:22.912Z,13.71
2023-04-08T08:42:22.834Z,13.79
2023-04-08T08:43:22.769Z,13.80
2023-04-08T08:44:22.707Z,13.80
2023-04-08T08:45:22.637Z,13.81
2023-04-08T08:46:22.648Z,13.85
2023-04-08T08:47:22.526Z,13.83
2023-04-08T08:48:22.451Z,13.80
2023-04-08T08:49:22.371Z,13.80
2023-04-08T08:50:22.304Z,13.85
2023-04-08T08:51:22.241Z,13.79
2023-04-08T08:52:22.167Z,13.85
2023-04-08T08:53:22.100Z,13.79
2023-04-08T08:54:22.037Z,13.78
2023-04-08T08:55:41.463Z,13.95
2023-04-08T08:56:21.871Z,14.01
2023-04-08T08:57:21.799Z,14.10
2023-04-08T08:58:21.743Z,14.00
2023-04-08T08:59:21.646Z,14.03
2023-04-08T09:00:21.578Z,14.09
2023-04-08T09:01:21.509Z,14.19
2023-04-08T09:02:21.572Z,14.28
2023-04-08T09:03:21.668Z,14.30
2023-04-08T09:04:21.370Z,14.16
2023-04-08T09:05:21.326Z,14.16
2023-04-08T09:06:21.072Z,14.22
2023-04-08T09:07:20.998Z,14.28
2023-04-08T09:08:20.926Z,14.28
2023-04-08T09:09:20.847Z,14.27
2023-04-08T09:10:20.768Z,14.28
2023-04-08T09:11:20.707Z,14.24
2023-04-08T09:12:20.646Z,14.27
2023-04-08T09:13:20.568Z,14.21
2023-04-08T09:14:20.496Z,14.25
2023-04-08T09:15:20.431Z,14.13
2023-04-08T09:16:20.437Z,14.14
2023-04-08T09:17:20.285Z,14.12
2023-04-08T09:18:20.238Z,14.15
2023-04-08T09:19:20.146Z,14.23
2023-04-08T09:20:20.081Z,14.33
2023-04-08T09:21:20.005Z,14.37
2023-04-08T09:22:19.924Z,14.38
2023-04-08T09:23:19.842Z,14.44
2023-04-08T09:24:19.778Z,14.48
2023-04-08T09:25:19.710Z,14.49
2023-04-08T09:26:19.681Z,14.53
2023-04-08T09:27:19.565Z,14.57
2023-04-08T09:28:19.501Z,14.50
2023-04-08T09:29:26.241Z,14.49
2023-04-08T09:30:19.373Z,14.45
2023-04-08T09:31:19.303Z,14.49
2023-04-08T09:32:19.203Z,14.43
2023-04-08T09:33:19.130Z,14.48
2023-04-08T09:34:19.097Z,14.50
2023-04-08T09:35:18.986Z,14.48
2023-04-08T09:36:18.920Z,14.27
2023-04-08T09:37:18.829Z,14.25
2023-04-08T09:38:18.754Z,14.29
2023-04-08T09:39:18.676Z,14.25
2023-04-08T09:40:18.622Z,14.30
2023-04-08T09:41:18.536Z,14.29
2023-04-08T09:42:18.451Z,14.35
2023-04-08T09:43:18.380Z,14.33
2023-04-08T09:44:18.302Z,14.41
2023-04-08T09:45:18.224Z,14.43
2023-04-08T09:46:18.203Z,14.35
2023-04-08T09:47:18.089Z,14.39
2023-04-08T09:48:18.021Z,14.41
2023-04-08T09:49:17.941Z,14.41
2023-04-08T09:50:17.890Z,14.47
2023-04-08T09:51:17.798Z,14.47
2023-04-08T09:52:17.755Z,14.41
2023-04-08T09:53:17.669Z,14.38
2023-04-08T09:54:17.591Z,14.25
2023-04-08T09:55:17.529Z,14.30
2023-04-08T09:56:17.455Z,14.28
2023-04-08T09:57:17.368Z,14.30
2023-04-08T09:58:17.305Z,14.29
2023-04-08T09:59:17.227Z,14.12
2023-04-08T10:00:17.213Z,14.04
2023-04-08T10:01:17.200Z,14.02
2023-04-08T10:02:17.063Z,13.98
2023-04-08T10:03:17.192Z,13.99
2023-04-08T10:04:16.937Z,14.05
2023-04-08T10:05:16.771Z,13.89
2023-04-08T10:06:16.745Z,13.45
2023-04-08T10:07:16.655Z,12.81
2023-04-08T10:08:16.633Z,12.57
2023-04-08T10:09:16.582Z,11.75
2023-04-08T10:10:16.639Z,11.22
2023-04-08T10:11:16.526Z,10.92
2023-04-08T10:12:16.516Z,10.82
2023-04-08T10:13:16.492Z,10.73
2023-04-08T10:14:16.483Z,10.74
2023-04-08T10:15:16.514Z,10.78
2023-04-08T10:16:16.566Z,10.89
2023-04-08T10:17:16.597Z,10.93
2023-04-08T10:18:16.643Z,10.70
2023-04-08T10:19:16.653Z,10.63
2023-04-08T10:20:16.672Z,10.37
2023-04-08T10:21:16.686Z,10.44
2023-04-08T10:22:16.730Z,10.55
2023-04-08T10:23:16.766Z,10.65
2023-04-08T10:24:16.773Z,10.49
2023-04-08T10:25:16.865Z,10.41
2023-04-08T10:26:16.815Z,10.32
2023-04-08T10:27:15.836Z,10.20
2023-04-08T10:28:16.895Z,9.68
2023-04-08T10:29:16.936Z,9.76
2023-04-08T10:30:17.005Z,9.90
2023-04-08T10:31:17.008Z,9.86
2023-04-08T10:32:17.033Z,9.88
2023-04-08T10:33:17.048Z,9.80
2023-04-08T10:34:17.093Z,9.83
2023-04-08T10:35:17.143Z,9.89
2023-04-08T10:36:17.204Z,9.96
2023-04-08T10:37:17.234Z,9.94
2023-04-08T10:38:17.301Z,9.80
2023-04-08T10:39:17.320Z,9.74
2023-04-08T10:40:17.391Z,9.74
2023-04-08T10:41:17.415Z,9.70
2023-04-08T10:42:17.468Z,9.47
2023-04-08T10:43:18.014Z,9.26
2023-04-08T10:44:17.519Z,9.11
2023-04-08T10:45:17.538Z,9.06
2023-04-08T10:46:17.647Z,9.03
2023-04-08T10:47:17.688Z,8.93
2023-04-08T10:48:17.722Z,8.88
2023-04-08T10:49:17.765Z,8.58
2023-04-08T10:50:17.774Z,8.33
2023-04-08T10:51:17.796Z,8.49
2023-04-08T10:52:17.847Z,8.25
2023-04-08T10:53:17.890Z,8.27
2023-04-08T10:54:18.061Z,8.09
2023-04-08T10:55:17.984Z,8.18
2023-04-08T10:56:18.012Z,8.31
2023-04-08T10:57:18.127Z,8.40
2023-04-08T10:58:18.105Z,8.52
2023-04-08T10:59:18.161Z,8.59
2023-04-08T11:00:18.230Z,8.48
2023-04-08T11:01:18.504Z,8.45
2023-04-08T11:02:18.524Z,8.44
2023-04-08T11:03:18.599Z,8.42
2023-04-08T11:04:18.522Z,8.39
2023-04-08T11:05:18.499Z,8.40
2023-04-08T11:06:18.573Z,8.39
2023-04-08T11:07:18.625Z,8.37
2023-04-08T11:08:20.534Z,7.95
2023-04-08T11:09:18.707Z,7.99
2023-04-08T11:10:18.761Z,8.18
2023-04-08T11:11:18.784Z,8.31
2023-04-08T11:12:18.817Z,8.30
2023-04-08T11:13:18.803Z,8.32
2023-04-08T11:14:18.811Z,8.48
2023-04-08T11:15:18.837Z,8.59
2023-04-08T11:16:18.952Z,8.65
2023-04-08T11:17:18.921Z,8.49
2023-04-08T11:18:18.973Z,8.46
2023-04-08T11:19:19.003Z,8.41
2023-04-08T11:20:19.068Z,8.32
2023-04-08T11:21:19.108Z,8.19
2023-04-08T11:22:19.148Z,8.06
2023-04-08T11:23:19.212Z,7.97
2023-04-08T11:24:19.273Z,7.90
2023-04-08T11:25:19.351Z,7.83
2023-04-08T11:26:19.434Z,7.70
2023-04-08T11:27:19.491Z,7.52
2023-04-08T11:28:19.567Z,7.49
2023-04-08T11:29:19.647Z,7.33
2023-04-08T11:30:19.742Z,7.21
2023-04-08T11:31:21.170Z,7.10
2023-04-08T11:32:19.912Z,7.02
2023-04-08T11:33:19.985Z,7.01
2023-04-08T11:34:20.089Z,6.93
2023-04-08T11:35:20.185Z,6.95
2023-04-08T11:36:20.267Z,7.00
2023-04-08T11:37:20.360Z,7.04
2023-04-08T11:38:20.423Z,7.00
2023-04-08T11:39:20.504Z,7.10
2023-04-08T11:40:20.594Z,7.10
2023-04-08T11:41:20.656Z,7.17
2023-04-08T11:42:20.767Z,7.23
2023-04-08T11:43:20.816Z,7.19
2023-04-08T11:44:20.907Z,7.06
2023-04-08T11:45:20.990Z,6.98
2023-04-08T11:46:21.107Z,6.93
2023-04-08T11:47:21.152Z,6.90
2023-04-08T11:48:21.262Z,6.86
2023-04-08T11:49:21.316Z,6.88
2023-04-08T11:50:21.410Z,6.81
2023-04-08T11:51:21.530Z,6.72
2023-04-08T11:52:21.611Z,6.69
2023-04-08T11:53:21.762Z,6.62
2023-04-08T11:54:21.848Z,6.56
2023-04-08T11:55:21.959Z,6.49
2023-04-08T11:56:22.063Z,6.47
2023-04-08T11:57:22.181Z,6.46
2023-04-08T11:58:22.313Z,6.53
2023-04-08T11:59:22.421Z,6.47
2023-04-08T12:00:22.545Z,6.45
2023-04-08T12:01:22.647Z,6.40
2023-04-08T12:02:23.001Z,6.41
2023-04-08T12:03:22.889Z,6.41
2023-04-08T12:04:23.038Z,6.46
2023-04-08T12:05:23.076Z,6.59
2023-04-08T12:06:23.126Z,6.70
2023-04-08T12:07:23.227Z,6.73
2023-04-08T12:08:23.879Z,6.81
2023-04-08T12:09:23.362Z,6.84
2023-04-08T12:10:23.435Z,6.95
2023-04-08T12:11:23.547Z,7.04
2023-04-08T12:12:23.634Z,7.05
2023-04-08T12:13:23.724Z,7.05
2023-04-08T12:14:24.150Z,7.07
2023-04-08T12:15:23.905Z,7.03
2023-04-08T12:16:24.046Z,7.07
2023-04-08T12:17:24.123Z,7.09
2023-04-08T12:18:24.220Z,7.05
2023-04-08T12:19:24.317Z,7.11
2023-04-08T12:20:24.428Z,7.01
2023-04-08T12:21:24.501Z,7.00
2023-04-08T12:22:24.613Z,7.07
2023-04-08T12:23:24.733Z,7.07
2023-04-08T12:24:24.817Z,7.11
2023-04-08T12:25:24.920Z,7.14
2023-04-08T12:26:25.103Z,7.11
2023-04-08T12:27:25.119Z,7.04
2023-04-08T12:28:25.200Z,7.01
2023-04-08T12:29:25.328Z,7.07
2023-04-08T12:30:25.413Z,7.04
2023-04-08T12:31:25.506Z,6.99
2023-04-08T12:32:25.709Z,6.93
2023-04-08T12:33:25.662Z,6.86
2023-04-08T12:34:25.780Z,6.89
2023-04-08T12:35:25.874Z,6.91
2023-04-08T12:36:26.012Z,6.98
2023-04-08T12:37:26.015Z,6.95
2023-04-08T12:38:26.109Z,7.00
2023-04-08T12:39:26.216Z,7.11
2023-04-08T12:40:26.307Z,7.12
2023-04-08T12:41:26.400Z,7.00
2023-04-08T12:42:26.479Z,6.93
2023-04-08T12:43:26.568Z,6.90
2023-04-08T12:44:26.668Z,6.95
2023-04-08T12:45:26.802Z,7.01
2023-04-08T12:46:26.926Z,7.00
2023-04-08T12:47:27.017Z,7.08
2023-04-08T12:48:27.080Z,7.15
2023-04-08T12:49:28.037Z,7.16
2023-04-08T12:50:27.329Z,7.17
2023-04-08T12:51:27.395Z,7.10
2023-04-08T12:52:27.477Z,7.12
2023-04-08T12:53:27.557Z,7.13
2023-04-08T12:54:27.649Z,7.13
2023-04-08T12:55:27.742Z,7.21
2023-04-08T12:56:27.755Z,7.24
2023-04-08T12:57:27.818Z,7.25
2023-04-08T12:58:27.905Z,7.22
2023-04-08T12:59:27.966Z,7.28
2023-04-08T13:00:28.030Z,7.27
2023-04-08T13:01:28.196Z,7.25
2023-04-08T13:02:28.315Z,7.20
2023-04-08T13:03:28.503Z,7.15
2023-04-08T13:04:28.406Z,7.05
2023-04-08T13:05:42.000Z,6.95
2023-04-08T13:06:28.595Z,6.93
2023-04-08T13:07:28.638Z,6.92
2023-04-08T13:08:28.726Z,6.89
2023-04-08T13:09:28.795Z,6.84
2023-04-08T13:10:28.858Z,6.84
2023-04-08T13:11:28.940Z,6.90
2023-04-08T13:12:28.952Z,6.96